createdAt,value
2019-04-16T00:03:56.316Z,11.2
2019-04-16T00:08:54.108Z,11.1
2019-04-16T00:13:49.191Z,11.1
2019-04-16T00:18:56.587Z,11.1
2019-04-16T00:23:42.337Z,11
2019-04-16T00:28:38.603Z,11
2019-04-16T00:33:35.076Z,11
2019-04-16T00:38:40.302Z,10.9
2019-04-16T00:43:28.110Z,11.3
2019-04-16T00:48:24.411Z,10.7
2019-04-16T00:53:21.009Z,10.5
2019-04-16T00:58:19.679Z,10.6
2019-04-16T01:03:13.953Z,10.6
2019-04-16T01:08:10.843Z,11.1
2019-04-16T01:13:07.300Z,10.5
2019-04-16T01:18:04.511Z,10.5
2019-04-16T01:23:00.102Z,10.3
2019-04-16T01:27:59.608Z,10.3
2019-04-16T01:32:53.144Z,10.3
2019-04-16T01:37:49.206Z,10.3
2019-04-16T01:42:45.381Z,10.2
2019-04-16T01:47:41.920Z,10.1
2019-04-16T01:52:38.298Z,10.1
2019-04-16T01:57:34.668Z,10
2019-04-16T02:02:31.200Z,10
2019-04-16T02:07:28.543Z,9.9
2019-04-16T02:12:23.907Z,9.9
2019-04-16T02:17:20.212Z,9.8
2019-04-16T02:22:16.712Z,9.8
2019-04-16T02:27:13.146Z,9.8
2019-04-16T02:32:09.873Z,9.7
2019-04-16T02:37:06.325Z,9.6
2019-04-16T02:42:02.844Z,9.6
2019-04-16T02:47:04.516Z,9.6
2019-04-16T02:51:55.587Z,3.3
2019-04-16T02:56:53.078Z,9.3
2019-04-16T03:01:49.316Z,9.5
2019-04-16T03:06:45.095Z,9.4
2019-04-16T03:11:41.712Z,9.5
2019-04-16T03:16:38.744Z,9.4
2019-04-16T03:21:34.042Z,9.3
2019-04-16T03:26:30.356Z,9.4
2019-04-16T03:31:26.762Z,9.4
2019-04-16T03:36:22.742Z,9.1
2019-04-16T03:41:19.196Z,9.3
2019-04-16T03:46:15.459Z,9.1
2019-04-16T03:51:12.080Z,9.4
2019-04-16T03:56:08.381Z,9.3
2019-04-16T04:01:05.067Z,9.3
2019-04-16T04:06:03.462Z,9.2
2019-04-16T04:10:57.685Z,9.2
2019-04-16T04:15:55.077Z,9.8
2019-04-16T04:20:51.027Z,9.3
2019-04-16T04:25:47.381Z,9.3
2019-04-16T04:30:43.931Z,9.9
2019-04-16T04:35:40.366Z,9.3
2019-04-16T04:40:44.083Z,9.9
2019-04-16T04:45:33.724Z,9.4
2019-04-16T04:50:32.334Z,9.4
2019-04-16T05:00:23.229Z,9.4
2019-04-16T05:05:23.996Z,8.5
2019-04-16T05:10:16.317Z,9.6
2019-04-16T05:15:12.514Z,9.6
2019-04-16T05:20:08.585Z,9.6
2019-04-16T05:25:04.859Z,7.7
2019-04-16T05:30:01.201Z,9.5
2019-04-16T05:34:57.522Z,9.6
2019-04-16T05:39:58.538Z,9.7
2019-04-16T05:44:50.015Z,9.7
2019-04-16T05:49:46.584Z,9.6
2019-04-16T05:54:44.286Z,9
2019-04-16T05:59:39.433Z,10.4
2019-04-16T06:04:36.358Z,10.4
2019-04-16T06:09:32.707Z,9.9
2019-04-16T06:14:29.133Z,9.9
2019-04-16T06:19:25.689Z,9.9
2019-04-16T06:24:22.416Z,9.9
2019-04-16T06:29:19.058Z,9.9
2019-04-16T06:34:15.653Z,10.6
2019-04-16T06:39:12.010Z,10.1
2019-04-16T06:44:08.386Z,10.1
2019-04-16T06:49:04.924Z,10.1
2019-04-16T06:54:01.312Z,10.1
2019-04-16T06:58:58.182Z,10.1
2019-04-16T07:03:58.186Z,10.7
2019-04-16T07:08:50.801Z,10.2
2019-04-16T07:13:46.847Z,10.2
2019-04-16T07:18:43.303Z,10.3
2019-04-16T07:23:39.863Z,10.4
2019-04-16T07:28:36.417Z,10
2019-04-16T07:33:32.684Z,10.3
2019-04-16T07:38:29.257Z,10.4
2019-04-16T07:43:30.894Z,10.5
2019-04-16T07:48:23.041Z,10.6
2019-04-16T07:53:19.026Z,10.7
2019-04-16T07:58:15.369Z,10.8
2019-04-16T08:03:11.715Z,10.9
2019-04-16T08:13:03.940Z,11.1
2019-04-16T08:18:00.665Z,11.2
2019-04-16T08:22:57.270Z,11.3
2019-04-16T08:27:54.797Z,11.4
2019-04-16T08:32:50.944Z,12
2019-04-16T08:37:49.001Z,11.6
2019-04-16T08:42:44.984Z,11.7
2019-04-16T08:47:44.284Z,12.4
2019-04-16T08:52:38.496Z,11.9
2019-04-16T08:57:33.527Z,12.5
2019-04-16T09:02:29.937Z,12.6
2019-04-16T09:07:26.627Z,12.7
2019-04-16T09:12:23.322Z,12.8
2019-04-16T09:17:19.651Z,12.9
2019-04-16T09:22:17.103Z,13
2019-04-16T09:27:13.582Z,13
2019-04-16T09:32:09.093Z,13
2019-04-16T09:37:05.875Z,13.1
2019-04-16T09:42:02.114Z,13.2
2019-04-16T09:46:59.708Z,13.3
2019-04-16T09:51:55.712Z,13.6
2019-04-16T09:56:52.486Z,13.7
2019-04-16T10:01:49.039Z,14.1
2019-04-16T10:06:45.793Z,14.2
2019-04-16T10:11:42.536Z,14.2
2019-04-16T10:16:39.188Z,14.1
2019-04-16T10:21:35.767Z,14.1
2019-04-16T10:26:32.562Z,14.2
2019-04-16T10:31:29.061Z,14.3
2019-04-16T10:36:25.263Z,14.3
2019-04-16T10:41:21.867Z,14.4
2019-04-16T10:46:18.495Z,14.5
2019-04-16T10:51:15.491Z,14.6
2019-04-16T10:56:10.948Z,14.7
2019-04-16T11:01:07.776Z,14.8
2019-04-16T11:06:04.401Z,15
2019-04-16T11:11:00.774Z,15
2019-04-16T11:15:56.938Z,14.9
2019-04-16T11:20:53.212Z,14.7
2019-04-16T11:25:49.230Z,14.5
2019-04-16T11:30:48.602Z,14.2
2019-04-16T11:35:41.758Z,13.9
2019-04-16T11:40:40.911Z,13.6
2019-04-16T11:45:35.116Z,12.9
2019-04-16T11:50:31.323Z,13.4
2019-04-16T11:55:27.595Z,13.2
2019-04-16T12:00:24.126Z,13.2
2019-04-16T12:05:20.563Z,12.6
2019-04-16T12:10:17.304Z,12.7
2019-04-16T12:15:13.945Z,13.3
2019-04-16T12:20:10.529Z,12.7
2019-04-16T12:25:06.737Z,12.8
2019-04-16T12:30:03.472Z,13.4
2019-04-16T12:35:00.125Z,13.4
2019-04-16T12:39:56.454Z,12.8
2019-04-16T12:44:53.357Z,13.2
2019-04-16T12:49:50.063Z,13.2
2019-04-16T12:54:46.199Z,12.6
2019-04-16T12:59:42.899Z,12.6
2019-04-16T13:04:39.174Z,12.5
2019-04-16T13:09:36.324Z,12.5
2019-04-16T13:14:33.388Z,12.7
2019-04-16T13:19:29.703Z,12.7
2019-04-16T13:24:27.192Z,12.6
2019-04-16T13:29:28.883Z,13.3
2019-04-16T13:34:20.565Z,13.3
2019-04-16T13:39:17.198Z,13
2019-04-16T13:44:16.889Z,13.6
2019-04-16T13:49:10.499Z,13.6
2019-04-16T13:54:06.965Z,13.2
2019-04-16T13:59:03.559Z,13.8
2019-04-16T14:04:00.102Z,14.1
2019-04-16T14:13:53.806Z,13.8
2019-04-16T14:18:50.857Z,13.8
2019-04-16T14:23:47.175Z,14.3
2019-04-16T14:28:51.733Z,13.4
2019-04-16T14:33:40.958Z,14.1
2019-04-16T14:38:37.318Z,13.9
2019-04-16T14:43:33.901Z,13.3
2019-04-16T14:48:30.791Z,12.5
2019-04-16T14:53:27.521Z,13.8
2019-04-16T14:58:24.900Z,13.3
2019-04-16T15:03:21.738Z,13.8
2019-04-16T15:08:18.931Z,13.9
2019-04-16T15:13:15.427Z,13.9
2019-04-16T15:18:12.494Z,13.6
2019-04-16T15:23:08.606Z,14.3
2019-04-16T15:28:05.738Z,13.8
2019-04-16T15:33:04.903Z,8.9
2019-04-16T15:37:59.272Z,13.8
2019-04-16T15:42:55.535Z,14.3
2019-04-16T15:47:51.998Z,14.3
2019-04-16T15:52:48.921Z,13.6
2019-04-16T15:57:45.519Z,14.1
2019-04-16T16:02:45.300Z,13.6
2019-04-16T16:07:38.991Z,12.2
2019-04-16T16:12:35.541Z,14
2019-04-16T16:17:31.761Z,13.9
2019-04-16T16:22:28.524Z,13.9
2019-04-16T16:27:25.033Z,13.9
2019-04-16T16:32:22.229Z,13.4
2019-04-16T16:37:18.577Z,13.9
2019-04-16T16:42:15.277Z,13.9
2019-04-16T16:47:11.830Z,13.9
2019-04-16T16:52:08.521Z,13.9
2019-04-16T16:57:08.113Z,13.8
2019-04-16T17:02:01.650Z,13.8
2019-04-16T17:06:58.920Z,13.2
2019-04-16T17:11:56.010Z,13.8
2019-04-16T17:16:51.373Z,13.7
2019-04-16T17:21:47.960Z,13.7
2019-04-16T17:26:46.878Z,13.1
2019-04-16T17:31:41.580Z,13.6
2019-04-16T17:36:38.394Z,13.6
2019-04-16T17:41:35.159Z,13.6
2019-04-16T17:46:32.265Z,13
2019-04-16T17:51:28.831Z,13.4
2019-04-16T17:56:25.543Z,13.5
2019-04-16T18:01:21.877Z,13.5
2019-04-16T18:06:18.557Z,13.4
2019-04-16T18:11:14.986Z,13.4
2019-04-16T18:16:11.719Z,13.4
2019-04-16T18:21:08.207Z,13.3
2019-04-16T18:26:04.875Z,13.3
2019-04-16T18:31:01.878Z,13.3
2019-04-16T18:36:01.299Z,13.2
2019-04-16T18:40:54.933Z,13.1
2019-04-16T18:45:51.995Z,12.6
2019-04-16T18:50:47.762Z,12.4
2019-04-16T18:55:43.970Z,12.9
2019-04-16T19:00:40.895Z,12.9
2019-04-16T19:05:34.783Z,12.8
2019-04-16T19:10:31.688Z,12.2
2019-04-16T19:15:28.861Z,12.2
2019-04-16T19:20:25.580Z,12.7
2019-04-16T19:25:23.216Z,12.7
2019-04-16T19:35:19.223Z,12.5
2019-04-16T19:40:15.553Z,12
2019-04-16T19:45:11.952Z,11.7
2019-04-16T19:50:06.963Z,12.3
2019-04-16T19:55:03.591Z,12.3
2019-04-16T20:00:00.256Z,12.2
2019-04-16T20:04:57.388Z,11.6
2019-04-16T20:09:53.801Z,11.6
2019-04-16T20:14:50.361Z,11.6
2019-04-16T20:19:47.414Z,11.5
2019-04-16T20:24:43.997Z,11.5
2019-04-16T20:29:40.919Z,11.4
2019-04-16T20:34:37.282Z,11.3
2019-04-16T20:39:33.805Z,11.3
2019-04-16T20:44:30.503Z,11.3
2019-04-16T20:49:26.461Z,11.3
2019-04-16T20:54:23.288Z,11.3
2019-04-16T20:59:19.916Z,11.2
2019-04-16T21:04:16.257Z,11.2
2019-04-16T21:09:13.024Z,11.1
2019-04-16T21:14:09.642Z,10.8
2019-04-16T21:19:21.582Z,11
2019-04-16T21:24:06.545Z,11
2019-04-16T21:29:01.964Z,10.9
2019-04-16T21:33:55.859Z,10.9
2019-04-16T21:38:52.332Z,10.8
2019-04-16T21:43:48.961Z,10.8
2019-04-16T21:48:45.459Z,10.7
2019-04-16T21:53:42.089Z,10.6
2019-04-16T21:58:38.786Z,10.6
2019-04-16T22:03:35.323Z,10.5
2019-04-16T22:08:32.329Z,10.5
2019-04-16T22:13:28.743Z,10.5
2019-04-16T22:18:24.775Z,10.4
2019-04-16T22:23:21.471Z,10.3
2019-04-16T22:28:18.109Z,10.3
2019-04-16T22:33:14.857Z,10.3
2019-04-16T22:38:14.240Z,10.3
2019-04-16T22:43:08.733Z,10.3
2019-04-16T22:48:04.504Z,10.3
2019-04-16T22:53:00.894Z,10.2
2019-04-16T22:57:59.781Z,10.2
2019-04-16T23:02:54.061Z,10.2
2019-04-16T23:07:50.543Z,10.2
2019-04-16T23:12:46.833Z,10.1
2019-04-16T23:17:45.950Z,10.1
2019-04-16T23:22:40.121Z,10
2019-04-16T23:27:37.390Z,10
2019-04-16T23:32:33.910Z,10.6
2019-04-16T23:37:30.287Z,10
2019-04-16T23:42:27.066Z,9.9
2019-04-16T23:47:23.647Z,9.8
2019-04-16T23:52:20.394Z,9.8
2019-04-16T23:57:16.706Z,9.8
